createdAt,value
2022-08-22T00:00:13.810Z,4.18
2022-08-22T00:03:02.139Z,4.28
2022-08-22T00:06:04.225Z,5.00
2022-08-22T00:08:39.345Z,4.35
2022-08-22T00:11:26.025Z,3.75
2022-08-22T00:14:19.855Z,3.17
2022-08-22T00:17:00.465Z,4.57
2022-08-22T00:19:33.855Z,4.15
2022-08-22T00:22:16.532Z,5.70
2022-08-22T00:25:08.645Z,4.00
2022-08-22T00:28:00.716Z,3.47
2022-08-22T00:30:30.555Z,4.78
2022-08-22T00:33:02.916Z,4.70
2022-08-22T00:35:41.716Z,5.23
2022-08-22T00:38:38.829Z,5.15
2022-08-22T00:41:31.906Z,5.63
2022-08-22T00:44:31.297Z,5.82
2022-08-22T00:47:17.275Z,3.80
2022-08-22T00:50:09.686Z,4.55
2022-08-22T00:53:05.745Z,4.22
2022-08-22T00:55:42.985Z,6.60
2022-08-22T00:58:38.535Z,4.43
2022-08-22T01:01:13.991Z,3.58
2022-08-22T01:03:44.225Z,4.07
2022-08-22T01:06:45.835Z,4.07
2022-08-22T01:09:24.975Z,5.70
2022-08-22T01:12:11.975Z,5.10
2022-08-22T01:14:52.176Z,4.68
2022-08-22T01:17:38.405Z,4.80
2022-08-22T01:20:27.006Z,5.45
2022-08-22T01:23:28.786Z,3.90
2022-08-22T01:26:33.725Z,5.50
2022-08-22T01:29:30.715Z,4.68
2022-08-22T01:32:30.145Z,5.45
2022-08-22T01:35:23.485Z,6.95
2022-08-22T01:38:00.074Z,5.05
2022-08-22T01:40:30.645Z,3.50
2022-08-22T01:43:21.467Z,3.93
2022-08-22T01:46:31.682Z,6.18
2022-08-22T01:49:11.941Z,4.00
2022-08-22T01:52:09.313Z,6.47
2022-08-22T01:54:47.543Z,4.43
2022-08-22T01:57:15.652Z,5.57
2022-08-22T01:59:47.652Z,6.97
2022-08-22T02:02:34.012Z,3.55
2022-08-22T02:05:25.702Z,4.07
2022-08-22T02:08:05.845Z,5.40
2022-08-22T02:11:07.075Z,4.80
2022-08-22T02:14:09.850Z,5.88
2022-08-22T02:16:41.014Z,7.10
2022-08-22T02:19:11.173Z,4.63
2022-08-22T02:21:53.732Z,5.30
2022-08-22T02:24:33.972Z,4.78
2022-08-22T02:27:17.163Z,5.57
2022-08-22T02:30:15.248Z,3.50
2022-08-22T02:32:42.602Z,6.00
2022-08-22T02:35:21.572Z,6.80
2022-08-22T02:38:33.404Z,4.25
2022-08-22T02:41:15.942Z,4.38
2022-08-22T02:43:59.913Z,4.07
2022-08-22T02:46:47.272Z,4.75
2022-08-22T02:49:35.172Z,7.35
2022-08-22T02:52:45.213Z,5.45
2022-08-22T02:55:20.223Z,5.68
2022-08-22T02:57:57.149Z,5.68
2022-08-22T03:00:31.229Z,3.80
2022-08-22T03:03:26.642Z,5.78
2022-08-22T03:06:01.942Z,6.15
2022-08-22T03:08:42.827Z,3.47
2022-08-22T03:11:32.522Z,4.38
2022-08-22T03:14:16.823Z,4.97
2022-08-22T03:17:02.553Z,5.13
2022-08-22T03:20:08.142Z,6.22
2022-08-22T03:23:02.522Z,4.97
2022-08-22T03:25:35.573Z,4.88
2022-08-22T03:28:16.022Z,4.65
2022-08-22T03:31:38.432Z,5.38
2022-08-22T03:34:26.802Z,7.38
2022-08-22T03:37:05.663Z,5.65
2022-08-22T03:39:51.344Z,4.63
2022-08-22T03:42:52.226Z,5.57
2022-08-22T03:45:25.672Z,4.13
2022-08-22T03:48:02.628Z,6.40
2022-08-22T03:50:35.762Z,5.50
2022-08-22T03:53:35.324Z,4.72
2022-08-22T03:56:21.272Z,7.35
2022-08-22T03:59:13.022Z,6.53
2022-08-22T04:02:42.134Z,8.30
2022-08-22T04:05:33.479Z,4.57
2022-08-22T04:08:31.919Z,4.43
2022-08-22T04:11:25.586Z,4.80
2022-08-22T04:14:08.808Z,4.85
2022-08-22T04:17:20.369Z,5.32
2022-08-22T04:20:06.718Z,5.70
2022-08-22T04:23:02.060Z,4.53
2022-08-22T04:25:39.127Z,5.65
2022-08-22T04:28:25.798Z,6.10
2022-08-22T04:30:56.889Z,5.47
2022-08-22T04:33:33.956Z,5.68
2022-08-22T04:36:13.579Z,5.35
2022-08-22T04:39:10.668Z,8.60
2022-08-22T04:41:51.958Z,6.30
2022-08-22T04:44:36.688Z,5.50
2022-08-22T04:47:18.758Z,5.75
2022-08-22T04:49:58.579Z,6.57
2022-08-22T04:52:44.648Z,7.32
2022-08-22T04:55:19.968Z,7.07
2022-08-22T04:58:13.358Z,6.22
2022-08-22T05:01:09.699Z,6.32
2022-08-22T05:03:45.067Z,6.22
2022-08-22T05:06:15.989Z,5.78
2022-08-22T05:08:48.400Z,4.57
2022-08-22T05:11:23.856Z,4.25
2022-08-22T05:13:57.038Z,5.13
2022-08-22T05:16:30.838Z,4.32
2022-08-22T05:19:03.229Z,4.13
2022-08-22T05:21:35.440Z,4.57
2022-08-22T05:24:28.306Z,5.00
2022-08-22T05:26:59.802Z,5.55
2022-08-22T05:29:31.278Z,5.55
2022-08-22T05:32:03.813Z,6.03
2022-08-22T05:34:38.909Z,6.47
2022-08-22T05:37:12.198Z,6.22
2022-08-22T05:42:15.819Z,5.63
2022-08-22T05:44:43.348Z,6.32
2022-08-22T05:47:24.528Z,6.25
2022-08-22T05:50:07.922Z,6.55
2022-08-22T05:53:15.299Z,5.97
2022-08-22T05:55:45.758Z,5.93
2022-08-22T05:58:31.639Z,5.95
2022-08-22T06:01:23.012Z,5.10
2022-08-22T06:04:00.480Z,6.00
2022-08-22T06:06:30.198Z,6.18
2022-08-22T06:09:01.698Z,6.97
2022-08-22T06:11:35.490Z,5.00
2022-08-22T06:14:41.406Z,5.43
2022-08-22T06:17:21.046Z,5.30
2022-08-22T06:19:51.358Z,6.97
2022-08-22T06:22:24.459Z,5.22
2022-08-22T06:24:55.148Z,5.90
2022-08-22T06:27:26.209Z,5.47
2022-08-22T06:30:03.193Z,4.80
2022-08-22T06:32:58.780Z,6.22
2022-08-22T06:35:55.341Z,4.80
2022-08-22T06:38:28.560Z,5.30
2022-08-22T06:43:53.438Z,5.22
2022-08-22T06:46:23.549Z,3.95
2022-08-22T06:48:51.699Z,6.25
2022-08-22T06:51:22.148Z,3.75
2022-08-22T06:53:56.110Z,2.97
2022-08-22T06:56:34.298Z,3.70
2022-08-22T06:59:07.820Z,4.35
2022-08-22T07:01:45.497Z,4.93
2022-08-22T07:04:13.099Z,5.32
2022-08-22T07:06:43.998Z,5.45
2022-08-22T07:09:27.859Z,6.13
2022-08-22T07:12:00.488Z,4.95
2022-08-22T07:14:40.358Z,7.30
2022-08-22T07:17:15.648Z,6.07
2022-08-22T07:20:08.282Z,5.40
2022-08-22T07:22:38.158Z,4.15
2022-08-22T07:25:12.928Z,4.75
2022-08-22T07:27:55.341Z,5.20
2022-08-22T07:30:27.988Z,4.18
2022-08-22T07:33:26.104Z,3.72
2022-08-22T07:35:53.048Z,3.90
2022-08-22T07:38:43.163Z,2.80
2022-08-22T07:41:24.815Z,4.03
2022-08-22T07:44:20.724Z,5.65
2022-08-22T07:46:52.057Z,2.90
2022-08-22T07:49:29.422Z,3.05
2022-08-22T07:52:32.374Z,6.07
2022-08-22T07:55:24.434Z,5.32
2022-08-22T07:58:00.913Z,4.20
2022-08-22T08:00:30.257Z,5.60
2022-08-22T08:03:02.414Z,5.07
2022-08-22T08:05:33.854Z,5.55
2022-08-22T08:08:07.785Z,6.28
2022-08-22T08:10:39.838Z,3.75
2022-08-22T08:13:39.764Z,3.33
2022-08-22T08:16:11.073Z,4.25
2022-08-22T08:18:40.027Z,2.72
2022-08-22T08:21:30.017Z,4.88
2022-08-22T08:24:00.594Z,4.35
2022-08-22T08:27:03.614Z,3.45
2022-08-22T08:29:32.305Z,5.30
2022-08-22T08:32:01.224Z,4.70
2022-08-22T08:34:32.733Z,3.30
2022-08-22T08:37:15.364Z,3.35
2022-08-22T08:39:51.012Z,2.85
2022-08-22T08:43:03.283Z,4.05
2022-08-22T08:45:42.913Z,3.08
2022-08-22T08:48:19.784Z,2.30
2022-08-22T08:51:24.115Z,2.70
2022-08-22T08:54:03.574Z,2.72
2022-08-22T08:56:57.375Z,2.50
2022-08-22T08:59:27.744Z,2.80
2022-08-22T09:02:23.739Z,2.95
2022-08-22T09:05:26.856Z,3.80
2022-08-22T09:08:36.184Z,4.03
2022-08-22T09:11:09.669Z,4.00
2022-08-22T09:13:58.933Z,2.53
2022-08-22T09:16:51.831Z,2.42
2022-08-22T09:19:52.394Z,3.28
2022-08-22T09:22:26.124Z,3.92
2022-08-22T09:25:18.063Z,3.15
2022-08-22T09:28:19.826Z,3.75
2022-08-22T09:31:47.581Z,2.05
2022-08-22T09:34:24.073Z,2.25
2022-08-22T09:37:17.746Z,2.05
2022-08-22T09:40:17.289Z,0.95
2022-08-22T09:43:13.613Z,2.72
2022-08-22T09:46:11.755Z,3.53
2022-08-22T09:48:49.213Z,1.15
2022-08-22T09:51:31.584Z,1.88
2022-08-22T09:54:22.471Z,1.33
2022-08-22T09:57:15.964Z,3.00
2022-08-22T10:00:10.273Z,2.28
2022-08-22T10:03:13.823Z,2.58
2022-08-22T10:05:59.619Z,1.77
2022-08-22T10:08:36.224Z,2.20
2022-08-22T10:11:18.820Z,0.85
2022-08-22T10:17:12.094Z,2.75
2022-08-22T10:19:42.927Z,2.75
2022-08-22T10:22:19.533Z,1.40
2022-08-22T10:25:14.756Z,3.38
2022-08-22T10:28:10.439Z,1.90
2022-08-22T10:31:11.942Z,1.70
2022-08-22T10:33:57.644Z,4.85
2022-08-22T10:36:46.144Z,2.03
2022-08-22T10:39:32.586Z,3.67
2022-08-22T10:42:41.974Z,0.50
2022-08-22T10:45:36.825Z,1.10
2022-08-22T10:48:35.096Z,1.50
2022-08-22T10:51:28.913Z,3.15
2022-08-22T10:54:19.793Z,0.95
2022-08-22T10:57:20.672Z,3.30
2022-08-22T11:00:02.096Z,0.63
2022-08-22T11:02:42.240Z,1.83
2022-08-22T11:05:24.834Z,0.98
2022-08-22T11:08:19.729Z,1.02
2022-08-22T11:11:09.344Z,1.13
2022-08-22T11:13:49.639Z,3.78
2022-08-22T11:16:47.093Z,1.77
2022-08-22T11:19:19.525Z,1.35
2022-08-22T11:22:10.654Z,1.45
2022-08-22T11:24:56.487Z,1.50
2022-08-22T11:28:10.004Z,1.20
2022-08-22T11:30:58.714Z,0.85
2022-08-22T11:33:51.674Z,0.30
2022-08-22T11:36:27.685Z,0.43
2022-08-22T11:39:18.464Z,0.45
2022-08-22T11:41:59.145Z,1.35
2022-08-22T11:44:32.136Z,0.90
2022-08-22T11:47:08.084Z,0.68
2022-08-22T11:50:01.837Z,0.30
2022-08-22T11:52:51.743Z,0.77
2022-08-22T11:55:35.405Z,2.10
2022-08-22T12:01:03.738Z,3.03
2022-08-22T12:03:46.144Z,0.20
2022-08-22T12:06:56.017Z,1.45
2022-08-22T12:09:45.764Z,2.47
2022-08-22T12:12:15.344Z,0.70
2022-08-22T12:14:57.495Z,1.23
2022-08-22T12:18:00.977Z,0.40
2022-08-22T12:21:00.105Z,1.75
2022-08-22T12:23:55.872Z,1.85
2022-08-22T12:26:45.594Z,1.15
2022-08-22T12:29:51.334Z,2.20
2022-08-22T12:32:33.938Z,1.10
2022-08-22T12:35:30.027Z,0.85
2022-08-22T12:38:29.287Z,1.98
2022-08-22T12:41:28.340Z,1.70
2022-08-22T12:44:42.765Z,0.63
2022-08-22T12:47:47.692Z,1.00
2022-08-22T12:50:43.124Z,0.70
2022-08-22T12:53:39.965Z,1.73
2022-08-22T12:56:26.233Z,0.30
2022-08-22T12:59:34.077Z,0.90
2022-08-22T13:02:24.554Z,3.58
2022-08-22T13:04:58.745Z,1.17
2022-08-22T13:07:30.862Z,0.30
2022-08-22T13:10:17.520Z,0.27
2022-08-22T13:12:56.275Z,1.17
2022-08-22T13:15:59.764Z,0.85
2022-08-22T13:18:38.335Z,3.33
2022-08-22T13:21:17.034Z,0.77
2022-08-22T13:23:53.755Z,4.70
2022-08-22T13:26:33.943Z,2.47
2022-08-22T13:29:25.805Z,0.75
2022-08-22T13:32:02.086Z,0.38
2022-08-22T13:34:40.074Z,0.80
2022-08-22T13:37:15.387Z,0.35
2022-08-22T13:39:49.016Z,3.25
2022-08-22T13:42:29.878Z,1.00
2022-08-22T13:45:02.963Z,1.17
2022-08-22T13:47:39.657Z,1.40
2022-08-22T13:50:19.277Z,0.50
2022-08-22T13:53:15.776Z,1.92
2022-08-22T13:56:04.032Z,1.42
2022-08-22T13:58:45.596Z,1.52
2022-08-22T14:01:17.542Z,0.47
2022-08-22T14:03:59.877Z,0.93
2022-08-22T14:06:55.087Z,0.70
2022-08-22T14:10:15.010Z,2.08
2022-08-22T14:13:11.827Z,3.38
2022-08-22T14:15:44.987Z,1.17
2022-08-22T14:18:30.003Z,0.85
2022-08-22T14:21:40.289Z,2.33
2022-08-22T14:24:38.821Z,1.95
2022-08-22T14:27:33.157Z,0.77
2022-08-22T14:30:24.407Z,1.77
2022-08-22T14:33:14.317Z,3.13
2022-08-22T14:35:45.157Z,5.10
2022-08-22T14:38:30.295Z,10.30
2022-08-22T14:41:03.361Z,3.53
2022-08-22T14:43:33.810Z,0.95
2022-08-22T14:46:18.449Z,2.35
2022-08-22T14:49:18.603Z,2.47
2022-08-22T14:51:55.027Z,2.63
2022-08-22T14:54:28.938Z,0.90
2022-08-22T14:56:59.677Z,1.23
2022-08-22T14:59:55.166Z,1.35
2022-08-22T15:02:27.952Z,1.35
2022-08-22T15:04:56.866Z,1.42
2022-08-22T15:07:26.910Z,4.93
2022-08-22T15:10:20.741Z,2.88
2022-08-22T15:12:56.207Z,2.35
2022-08-22T15:15:49.788Z,3.28
2022-08-22T15:18:28.337Z,2.50
2022-08-22T15:21:06.844Z,3.65
2022-08-22T15:23:45.437Z,3.20
2022-08-22T15:26:31.367Z,2.38
2022-08-22T15:31:46.672Z,1.85
2022-08-22T15:34:40.354Z,2.60
2022-08-22T15:37:11.960Z,1.00
2022-08-22T15:40:27.419Z,0.63
2022-08-22T15:42:58.309Z,3.95
2022-08-22T15:45:36.069Z,1.35
2022-08-22T15:48:10.766Z,1.50
2022-08-22T15:50:55.487Z,3.13
2022-08-22T15:53:28.736Z,0.85
2022-08-22T15:56:05.538Z,3.90
2022-08-22T15:58:38.135Z,5.35
2022-08-22T16:01:26.452Z,0.93
2022-08-22T16:04:02.737Z,3.40
2022-08-22T16:07:01.421Z,0.73
2022-08-22T16:09:46.476Z,1.25
2022-08-22T16:12:28.628Z,1.30
2022-08-22T16:14:56.356Z,1.45
2022-08-22T16:17:29.525Z,2.00
2022-08-22T16:20:18.494Z,2.97
2022-08-22T16:22:58.893Z,1.48
2022-08-22T16:25:44.979Z,0.70
2022-08-22T16:28:57.305Z,2.10
2022-08-22T16:31:40.006Z,3.70
2022-08-22T16:34:19.085Z,6.32
2022-08-22T16:36:51.925Z,5.82
2022-08-22T16:39:22.249Z,2.72
2022-08-22T16:42:23.578Z,2.55
2022-08-22T16:45:05.527Z,9.55
2022-08-22T16:47:32.955Z,5.07
2022-08-22T16:50:26.075Z,3.20
2022-08-22T16:52:58.908Z,5.78
2022-08-22T16:55:29.516Z,4.57
2022-08-22T16:58:15.426Z,5.30
2022-08-22T17:01:03.660Z,2.20
2022-08-22T17:03:40.467Z,2.63
2022-08-22T17:06:32.396Z,2.10
2022-08-22T17:09:18.295Z,3.30
2022-08-22T17:11:58.737Z,1.50
2022-08-22T17:14:54.926Z,2.28
2022-08-22T17:17:34.296Z,1.23
2022-08-22T17:20:37.516Z,1.92
2022-08-22T17:23:19.317Z,1.70
2022-08-22T17:25:55.655Z,1.17
2022-08-22T17:28:34.167Z,2.20
2022-08-22T17:31:25.959Z,2.70
2022-08-22T17:34:02.766Z,2.38
2022-08-22T17:37:07.906Z,3.60
2022-08-22T17:39:54.403Z,2.60
2022-08-22T17:42:29.246Z,2.28
2022-08-22T17:45:27.089Z,5.10
2022-08-22T17:48:15.726Z,2.75
2022-08-22T17:50:57.347Z,3.20
2022-08-22T17:53:47.147Z,2.95
2022-08-22T17:56:34.406Z,2.03
2022-08-22T17:59:12.235Z,5.03
2022-08-22T18:01:58.806Z,3.50
2022-08-22T18:04:35.357Z,2.90
2022-08-22T18:07:23.687Z,3.13
2022-08-22T18:09:57.897Z,2.65
2022-08-22T18:12:40.186Z,6.07
2022-08-22T18:15:19.157Z,3.58
2022-08-22T18:17:56.969Z,2.72
2022-08-22T18:20:44.948Z,3.13
2022-08-22T18:23:35.994Z,2.13
2022-08-22T18:26:32.157Z,2.25
2022-08-22T18:29:06.275Z,2.28
2022-08-22T18:32:11.649Z,2.05
2022-08-22T18:34:54.247Z,0.85
2022-08-22T18:37:33.087Z,3.25
2022-08-22T18:40:14.149Z,1.30
2022-08-22T18:43:12.307Z,1.85
2022-08-22T18:45:48.737Z,2.28
2022-08-22T18:48:34.447Z,2.72
2022-08-22T18:51:24.797Z,1.55
2022-08-22T18:54:07.089Z,1.25
2022-08-22T18:56:36.817Z,1.23
2022-08-22T18:59:16.077Z,1.30
2022-08-22T19:01:46.438Z,1.48
2022-08-22T19:04:52.297Z,1.35
2022-08-22T19:07:45.768Z,6.82
2022-08-22T19:10:40.787Z,4.00
2022-08-22T19:13:17.427Z,2.40
2022-08-22T19:16:13.778Z,2.13
2022-08-22T19:18:43.568Z,3.00
2022-08-22T19:21:44.268Z,1.35
2022-08-22T19:24:19.607Z,2.20
2022-08-22T19:26:48.647Z,2.03
2022-08-22T19:29:18.737Z,0.65
2022-08-22T19:31:48.347Z,1.25
2022-08-22T19:34:29.543Z,2.25
2022-08-22T19:37:32.281Z,0.90
2022-08-22T19:40:29.581Z,1.45
2022-08-22T19:42:57.595Z,1.58
2022-08-22T19:45:29.301Z,1.38
2022-08-22T19:48:44.707Z,2.20
2022-08-22T19:51:20.644Z,1.00
2022-08-22T19:53:56.525Z,1.98
2022-08-22T19:56:35.826Z,2.35
2022-08-22T19:59:11.627Z,2.78
2022-08-22T20:04:32.795Z,5.28
2022-08-22T20:07:14.416Z,5.95
2022-08-22T20:10:11.937Z,4.25
2022-08-22T20:12:55.655Z,4.03
2022-08-22T20:15:26.475Z,1.63
2022-08-22T20:20:54.905Z,1.90
2022-08-22T20:23:31.763Z,4.07
2022-08-22T20:25:59.875Z,1.55
2022-08-22T20:28:54.425Z,2.75
2022-08-22T20:31:25.417Z,2.63
2022-08-22T20:34:00.696Z,1.25
2022-08-22T20:36:29.469Z,1.13
2022-08-22T20:39:08.086Z,3.05
2022-08-22T20:41:47.298Z,2.42
2022-08-22T20:44:33.428Z,1.67
2022-08-22T20:47:10.273Z,1.33
2022-08-22T20:49:45.421Z,1.27
2022-08-22T20:52:26.872Z,2.50
2022-08-22T20:55:06.006Z,2.17
2022-08-22T20:57:35.057Z,2.95
2022-08-22T21:00:13.325Z,2.03
2022-08-22T21:03:03.335Z,3.38
2022-08-22T21:05:38.206Z,2.47
2022-08-22T21:08:18.567Z,2.53
2022-08-22T21:11:20.283Z,4.63
2022-08-22T21:13:48.684Z,5.57
2022-08-22T21:16:19.355Z,6.07
2022-08-22T21:18:52.285Z,4.60
2022-08-22T21:21:29.564Z,4.32
2022-08-22T21:26:56.914Z,1.45
2022-08-22T21:29:32.762Z,1.95
2022-08-22T21:32:23.434Z,3.00
2022-08-22T21:34:51.575Z,1.90
2022-08-22T21:37:34.354Z,2.42
2022-08-22T21:40:12.103Z,1.85
2022-08-22T21:42:44.854Z,1.33
2022-08-22T21:45:25.953Z,2.38
2022-08-22T21:47:53.694Z,2.15
2022-08-22T21:50:23.754Z,0.77
2022-08-22T21:52:54.235Z,1.92
2022-08-22T21:55:44.702Z,0.63
2022-08-22T21:58:32.625Z,1.58
2022-08-22T22:01:24.895Z,1.27
2022-08-22T22:03:52.696Z,0.77
2022-08-22T22:06:19.954Z,0.98
2022-08-22T22:08:47.316Z,1.77
2022-08-22T22:11:15.895Z,2.45
2022-08-22T22:13:43.782Z,0.68
2022-08-22T22:16:14.784Z,2.88
2022-08-22T22:18:42.273Z,2.33
2022-08-22T22:23:51.114Z,2.50
2022-08-22T22:26:19.673Z,1.90
2022-08-22T22:28:48.463Z,1.95
2022-08-22T22:31:18.804Z,1.55
2022-08-22T22:33:46.263Z,1.02
2022-08-22T22:36:18.952Z,2.38
2022-08-22T22:38:46.743Z,1.88
2022-08-22T22:41:14.232Z,1.45
2022-08-22T22:43:42.752Z,1.75
2022-08-22T22:46:10.123Z,1.52
2022-08-22T22:48:37.663Z,1.48
2022-08-22T22:51:09.974Z,2.28
2022-08-22T22:53:42.608Z,1.67
2022-08-22T22:56:17.912Z,2.70
2022-08-22T22:58:49.712Z,1.40
2022-08-22T23:01:20.370Z,2.47
2022-08-22T23:03:48.592Z,1.45
2022-08-22T23:06:19.443Z,1.70
2022-08-22T23:08:48.352Z,0.63
2022-08-22T23:11:21.662Z,2.20
2022-08-22T23:16:19.612Z,1.85
2022-08-22T23:18:48.132Z,1.58
2022-08-22T23:21:20.177Z,0.73
2022-08-22T23:23:49.052Z,0.70
2022-08-22T23:26:16.948Z,1.55
2022-08-22T23:28:44.502Z,1.85
2022-08-22T23:31:14.639Z,2.10
2022-08-22T23:33:42.793Z,2.50
2022-08-22T23:36:13.403Z,3.65
2022-08-22T23:38:40.932Z,1.83
2022-08-22T23:41:10.068Z,2.33
2022-08-22T23:43:37.571Z,0.95
2022-08-22T23:46:04.983Z,2.20
2022-08-22T23:48:32.466Z,1.48
2022-08-22T23:50:59.913Z,2.85
2022-08-22T23:53:28.813Z,4.28
2022-08-22T23:55:56.213Z,0.82
2022-08-22T23:58:23.729Z,2.80
